createdAt,value
2023-03-29T00:02:11.318Z,2.78
2023-03-29T00:04:38.871Z,10.55
2023-03-29T00:07:05.885Z,4.85
2023-03-29T00:09:33.394Z,2.72
2023-03-29T00:12:01.354Z,6.32
2023-03-29T00:14:30.494Z,3.05
2023-03-29T00:16:57.978Z,2.28
2023-03-29T00:19:24.795Z,4.18
2023-03-29T00:21:51.429Z,6.15
2023-03-29T00:24:18.122Z,3.80
2023-03-29T00:26:44.774Z,4.57
2023-03-29T00:29:11.479Z,3.85
2023-03-29T00:31:38.480Z,5.00
2023-03-29T00:34:05.191Z,6.28
2023-03-29T00:36:31.840Z,7.28
2023-03-29T00:38:58.663Z,3.92
2023-03-29T00:41:26.111Z,3.72
2023-03-29T00:43:59.150Z,3.60
2023-03-29T00:46:27.681Z,3.85
2023-03-29T00:49:07.891Z,2.97
2023-03-29T00:51:38.036Z,2.70
2023-03-29T00:54:10.404Z,4.45
2023-03-29T00:56:40.357Z,4.05
2023-03-29T00:59:13.326Z,8.23
2023-03-29T01:01:45.818Z,6.82
2023-03-29T01:04:22.145Z,9.30
2023-03-29T01:06:55.437Z,3.88
2023-03-29T01:09:26.973Z,3.65
2023-03-29T01:11:56.210Z,7.03
2023-03-29T01:14:39.997Z,2.38
2023-03-29T01:17:07.564Z,6.47
2023-03-29T01:19:58.150Z,3.00
2023-03-29T01:22:28.493Z,2.15
2023-03-29T01:25:32.302Z,2.63
2023-03-29T01:28:05.821Z,2.25
2023-03-29T01:30:53.152Z,2.30
2023-03-29T01:33:25.665Z,3.38
2023-03-29T01:36:04.989Z,6.32
2023-03-29T01:38:47.647Z,3.03
2023-03-29T01:41:14.542Z,4.32
2023-03-29T01:43:49.855Z,3.95
2023-03-29T01:46:34.281Z,6.15
2023-03-29T01:49:56.283Z,4.82
2023-03-29T01:52:34.295Z,3.07
2023-03-29T01:55:09.877Z,8.10
2023-03-29T01:57:38.669Z,4.03
2023-03-29T02:00:10.772Z,2.72
2023-03-29T02:02:41.582Z,2.35
2023-03-29T02:05:10.010Z,2.85
2023-03-29T02:07:38.584Z,4.70
2023-03-29T02:10:07.575Z,3.90
2023-03-29T02:12:34.290Z,4.72
2023-03-29T02:15:02.147Z,3.53
2023-03-29T02:17:28.878Z,6.80
2023-03-29T02:20:02.600Z,4.97
2023-03-29T02:22:38.790Z,6.10
2023-03-29T02:25:09.314Z,6.30
2023-03-29T02:27:38.008Z,3.58
2023-03-29T02:30:10.862Z,6.13
2023-03-29T02:32:49.315Z,3.67
2023-03-29T02:35:28.217Z,4.20
2023-03-29T02:37:57.199Z,4.63
2023-03-29T02:40:26.064Z,4.53
2023-03-29T02:42:56.116Z,5.43
2023-03-29T02:45:23.976Z,5.75
2023-03-29T02:47:59.326Z,5.57
2023-03-29T02:50:29.446Z,3.10
2023-03-29T02:53:01.686Z,6.43
2023-03-29T02:55:34.730Z,6.18
2023-03-29T02:58:07.944Z,5.88
2023-03-29T03:00:38.253Z,4.95
2023-03-29T03:03:09.600Z,4.32
2023-03-29T03:05:36.639Z,7.50
2023-03-29T03:08:04.582Z,4.07
2023-03-29T03:10:33.163Z,3.80
2023-03-29T03:13:00.298Z,4.80
2023-03-29T03:15:28.949Z,4.70
2023-03-29T03:17:57.041Z,6.10
2023-03-29T03:20:23.778Z,6.50
2023-03-29T03:22:51.565Z,5.75
2023-03-29T03:25:21.167Z,3.78
2023-03-29T03:27:50.197Z,5.60
2023-03-29T03:30:20.812Z,4.47
2023-03-29T03:33:22.642Z,4.88
2023-03-29T03:36:10.215Z,4.82
2023-03-29T03:38:38.467Z,8.27
2023-03-29T03:41:06.864Z,5.40
2023-03-29T03:43:35.155Z,6.53
2023-03-29T03:46:02.177Z,4.10
2023-03-29T03:48:30.065Z,8.00
2023-03-29T03:51:15.567Z,4.80
2023-03-29T03:53:42.916Z,4.82
2023-03-29T03:56:13.364Z,3.45
2023-03-29T03:58:57.357Z,4.07
2023-03-29T04:01:27.261Z,4.80
2023-03-29T04:04:14.789Z,3.35
2023-03-29T04:06:53.044Z,5.10
2023-03-29T04:09:38.915Z,5.43
2023-03-29T04:12:28.528Z,6.43
2023-03-29T04:14:56.127Z,5.47
2023-03-29T04:17:25.092Z,5.53
2023-03-29T04:19:58.295Z,4.07
2023-03-29T04:22:28.091Z,3.33
2023-03-29T04:24:55.411Z,4.90
2023-03-29T04:27:40.859Z,6.78
2023-03-29T04:30:22.068Z,7.43
2023-03-29T04:33:08.952Z,3.85
2023-03-29T04:35:37.076Z,5.20
2023-03-29T04:38:04.418Z,6.20
2023-03-29T04:40:31.677Z,6.22
2023-03-29T04:43:23.629Z,4.30
2023-03-29T04:46:07.766Z,5.97
2023-03-29T04:49:05.754Z,6.03
2023-03-29T04:51:35.492Z,11.32
2023-03-29T04:54:04.323Z,4.85
2023-03-29T04:56:39.218Z,7.22
2023-03-29T04:59:23.866Z,7.55
2023-03-29T05:01:51.516Z,9.57
2023-03-29T05:04:18.419Z,4.70
2023-03-29T05:07:02.915Z,5.05
2023-03-29T05:09:31.632Z,9.68
2023-03-29T05:12:01.037Z,9.82
2023-03-29T05:14:31.419Z,6.32
2023-03-29T05:16:58.711Z,5.80
2023-03-29T05:19:25.450Z,3.80
2023-03-29T05:21:53.107Z,12.52
2023-03-29T05:24:22.794Z,4.93
2023-03-29T05:26:56.603Z,10.80
2023-03-29T05:29:24.952Z,4.47
2023-03-29T05:31:59.642Z,4.80
2023-03-29T05:34:27.386Z,11.63
2023-03-29T05:36:59.083Z,11.37
2023-03-29T05:39:29.381Z,6.20
2023-03-29T05:41:56.104Z,7.85
2023-03-29T05:44:29.714Z,5.05
2023-03-29T05:47:04.561Z,4.18
2023-03-29T05:49:31.826Z,4.47
2023-03-29T05:52:08.263Z,5.78
2023-03-29T05:54:36.859Z,4.93
2023-03-29T05:57:06.206Z,5.35
2023-03-29T05:59:33.795Z,6.55
2023-03-29T06:02:03.051Z,5.05
2023-03-29T06:04:30.739Z,9.45
2023-03-29T06:07:16.379Z,5.10
2023-03-29T06:09:48.601Z,5.50
2023-03-29T06:12:20.098Z,5.10
2023-03-29T06:14:58.205Z,4.70
2023-03-29T06:17:35.980Z,7.55
2023-03-29T06:20:05.421Z,4.75
2023-03-29T06:22:32.734Z,3.85
2023-03-29T06:24:59.464Z,4.53
2023-03-29T06:27:31.351Z,7.28
2023-03-29T06:29:58.441Z,6.80
2023-03-29T06:32:25.689Z,4.75
2023-03-29T06:34:59.756Z,3.38
2023-03-29T06:37:49.902Z,13.90
2023-03-29T06:40:24.822Z,5.88
2023-03-29T06:42:57.637Z,8.88
2023-03-29T06:45:40.725Z,4.35
2023-03-29T06:48:17.277Z,3.67
2023-03-29T06:50:43.963Z,3.45
2023-03-29T06:53:13.737Z,3.85
2023-03-29T06:55:42.151Z,5.30
2023-03-29T06:58:31.565Z,7.05
2023-03-29T07:01:07.109Z,8.63
2023-03-29T07:03:46.788Z,5.10
2023-03-29T07:06:16.494Z,8.93
2023-03-29T07:08:43.801Z,3.80
2023-03-29T07:11:20.325Z,5.55
2023-03-29T07:13:57.827Z,3.78
2023-03-29T07:16:25.872Z,5.60
2023-03-29T07:18:57.605Z,8.43
2023-03-29T07:21:47.349Z,4.75
2023-03-29T07:24:14.923Z,4.10
2023-03-29T07:26:52.277Z,7.10
2023-03-29T07:29:28.668Z,7.70
2023-03-29T07:31:57.585Z,3.35
2023-03-29T07:34:51.823Z,5.45
2023-03-29T07:37:26.867Z,9.73
2023-03-29T07:39:55.182Z,10.52
2023-03-29T07:42:39.065Z,8.45
2023-03-29T07:45:08.800Z,9.23
2023-03-29T07:47:45.123Z,4.88
2023-03-29T07:50:12.155Z,6.30
2023-03-29T07:52:39.580Z,4.32
2023-03-29T07:55:08.343Z,7.78
2023-03-29T07:57:53.540Z,10.05
2023-03-29T08:00:21.406Z,7.70
2023-03-29T08:03:05.835Z,8.80
2023-03-29T08:05:41.402Z,6.20
2023-03-29T08:08:14.349Z,13.20
2023-03-29T08:10:53.749Z,5.95
2023-03-29T08:13:39.332Z,6.30
2023-03-29T08:16:24.319Z,7.28
2023-03-29T08:18:59.512Z,10.05
2023-03-29T08:21:36.405Z,5.68
2023-03-29T08:24:03.554Z,7.90
2023-03-29T08:26:42.054Z,9.35
2023-03-29T08:29:09.384Z,6.78
2023-03-29T08:31:36.881Z,9.55
2023-03-29T08:34:03.732Z,7.97
2023-03-29T08:36:48.934Z,5.90
2023-03-29T08:39:26.552Z,11.02
2023-03-29T08:42:26.536Z,7.03
2023-03-29T08:45:22.920Z,6.72
2023-03-29T08:48:28.695Z,5.88
2023-03-29T08:51:01.518Z,9.27
2023-03-29T08:53:38.013Z,7.40
2023-03-29T08:56:18.399Z,8.43
2023-03-29T08:58:49.707Z,5.35
2023-03-29T09:01:16.867Z,7.10
2023-03-29T09:04:20.124Z,5.57
2023-03-29T09:06:52.272Z,4.85
2023-03-29T09:09:28.669Z,8.27
2023-03-29T09:12:14.127Z,7.97
2023-03-29T09:14:56.033Z,9.75
2023-03-29T09:17:34.940Z,7.93
2023-03-29T09:20:35.696Z,5.70
2023-03-29T09:23:20.697Z,4.85
2023-03-29T09:26:26.686Z,3.08
2023-03-29T09:29:32.518Z,8.73
2023-03-29T09:32:03.097Z,6.63
2023-03-29T09:34:45.041Z,11.40
2023-03-29T09:37:30.805Z,7.15
2023-03-29T09:39:58.082Z,8.07
2023-03-29T09:42:39.458Z,6.50
2023-03-29T09:45:10.860Z,7.65
2023-03-29T09:47:52.283Z,6.00
2023-03-29T09:50:31.626Z,8.07
2023-03-29T09:53:01.261Z,5.05
2023-03-29T09:55:33.773Z,8.82
2023-03-29T09:58:24.250Z,6.25
2023-03-29T10:00:57.046Z,6.20
2023-03-29T10:03:27.301Z,5.93
2023-03-29T10:06:03.603Z,6.63
2023-03-29T10:08:40.754Z,5.90
2023-03-29T10:11:28.798Z,5.45
2023-03-29T10:14:00.346Z,3.70
2023-03-29T10:16:47.582Z,6.85
2023-03-29T10:19:27.941Z,8.30
2023-03-29T10:21:55.712Z,6.35
2023-03-29T10:24:24.680Z,9.27
2023-03-29T10:26:57.254Z,9.05
2023-03-29T10:29:25.427Z,5.93
2023-03-29T10:31:52.841Z,7.97
2023-03-29T10:34:25.193Z,7.35
2023-03-29T10:37:01.224Z,5.05
2023-03-29T10:39:33.914Z,9.23
2023-03-29T10:42:04.058Z,7.25
2023-03-29T10:44:36.549Z,5.28
2023-03-29T10:47:16.020Z,8.55
2023-03-29T10:49:47.077Z,12.73
2023-03-29T10:52:16.367Z,7.18
2023-03-29T10:54:43.711Z,11.98
2023-03-29T10:57:16.177Z,5.78
2023-03-29T11:00:13.263Z,5.70
2023-03-29T11:03:02.955Z,6.07
2023-03-29T11:05:47.788Z,6.53
2023-03-29T11:08:31.625Z,10.45
2023-03-29T11:11:17.243Z,7.43
2023-03-29T11:14:00.032Z,6.15
2023-03-29T11:17:07.497Z,7.30
2023-03-29T11:19:46.353Z,13.57
2023-03-29T11:22:27.925Z,7.75
2023-03-29T11:25:12.183Z,7.70
2023-03-29T11:27:49.252Z,9.32
2023-03-29T11:30:21.704Z,8.10
2023-03-29T11:33:04.853Z,10.07
2023-03-29T11:35:34.957Z,6.93
2023-03-29T11:38:19.353Z,7.97
2023-03-29T11:41:05.752Z,8.50
2023-03-29T11:43:42.747Z,7.20
2023-03-29T11:46:25.028Z,9.70
2023-03-29T11:49:06.739Z,7.03
2023-03-29T11:51:48.778Z,13.40
2023-03-29T11:54:48.361Z,11.57
2023-03-29T11:57:28.269Z,10.65
2023-03-29T12:00:01.861Z,7.53
2023-03-29T12:02:47.858Z,12.20
2023-03-29T12:05:30.948Z,10.45
2023-03-29T12:08:08.685Z,9.50
2023-03-29T12:10:37.568Z,9.80
2023-03-29T12:13:11.913Z,8.75
2023-03-29T12:15:45.524Z,8.73
2023-03-29T12:18:30.206Z,10.43
2023-03-29T12:21:00.173Z,9.65
2023-03-29T12:23:31.716Z,7.03
2023-03-29T12:26:30.149Z,10.20
2023-03-29T12:29:33.610Z,14.98
2023-03-29T12:32:19.182Z,9.00
2023-03-29T12:35:34.966Z,12.07
2023-03-29T12:38:23.618Z,11.85
2023-03-29T12:41:20.298Z,11.43
2023-03-29T12:44:05.843Z,9.65
2023-03-29T12:46:56.985Z,9.40
2023-03-29T12:49:33.108Z,9.93
2023-03-29T12:52:03.338Z,10.82
2023-03-29T12:54:33.067Z,8.88
2023-03-29T12:57:21.123Z,14.20
2023-03-29T12:59:49.315Z,8.00
2023-03-29T13:02:17.593Z,13.32
2023-03-29T13:04:54.729Z,11.32
2023-03-29T13:07:26.259Z,9.45
2023-03-29T13:09:56.117Z,14.65
2023-03-29T13:12:39.337Z,9.35
2023-03-29T13:15:21.970Z,10.95
2023-03-29T13:18:12.279Z,10.00
2023-03-29T13:20:57.157Z,9.23
2023-03-29T13:24:00.574Z,14.55
2023-03-29T13:26:45.910Z,8.43
2023-03-29T13:29:28.169Z,9.48
2023-03-29T13:32:03.503Z,8.35
2023-03-29T13:34:55.072Z,10.98
2023-03-29T13:37:41.218Z,12.82
2023-03-29T13:40:29.548Z,27.52
2023-03-29T13:43:19.159Z,9.27
2023-03-29T13:46:16.525Z,14.75
2023-03-29T13:48:43.178Z,11.25
2023-03-29T13:51:18.978Z,12.50
2023-03-29T13:54:01.003Z,7.90
2023-03-29T13:57:12.685Z,9.32
2023-03-29T13:59:52.171Z,9.50
2023-03-29T14:02:31.540Z,15.68
2023-03-29T14:05:00.665Z,11.05
2023-03-29T14:07:28.962Z,12.00
2023-03-29T14:09:58.132Z,10.60
2023-03-29T14:12:37.354Z,12.60
2023-03-29T14:15:06.635Z,9.90
2023-03-29T14:17:36.462Z,11.57
2023-03-29T14:20:08.957Z,11.20
2023-03-29T14:22:35.804Z,11.82
2023-03-29T14:25:13.124Z,8.68
2023-03-29T14:27:41.098Z,12.52
2023-03-29T14:30:27.368Z,7.72
2023-03-29T14:32:54.554Z,13.70
2023-03-29T14:35:28.877Z,11.57
2023-03-29T14:37:56.496Z,10.68
2023-03-29T14:40:24.388Z,14.05
2023-03-29T14:42:51.362Z,10.95
2023-03-29T14:45:20.874Z,9.55
2023-03-29T14:47:48.632Z,12.75
2023-03-29T14:50:24.440Z,11.43
2023-03-29T14:52:52.418Z,9.05
2023-03-29T14:55:23.484Z,11.60
2023-03-29T14:57:53.176Z,10.45
2023-03-29T15:00:30.037Z,16.77
2023-03-29T15:03:02.075Z,10.32
2023-03-29T15:05:34.040Z,12.27
2023-03-29T15:08:02.708Z,14.90
2023-03-29T15:10:33.247Z,13.70
2023-03-29T15:13:03.309Z,13.27
2023-03-29T15:15:34.588Z,13.35
2023-03-29T15:18:03.172Z,15.40
2023-03-29T15:20:36.486Z,14.68
2023-03-29T15:23:16.470Z,11.80
2023-03-29T15:25:53.178Z,10.68
2023-03-29T15:28:47.544Z,10.98
2023-03-29T15:31:18.314Z,9.60
2023-03-29T15:33:45.593Z,8.63
2023-03-29T15:36:14.009Z,12.60
2023-03-29T15:38:44.489Z,12.50
2023-03-29T15:41:14.232Z,15.10
2023-03-29T15:43:41.898Z,11.85
2023-03-29T15:46:10.737Z,11.38
2023-03-29T15:48:37.456Z,11.23
2023-03-29T15:51:06.346Z,13.60
2023-03-29T15:53:33.443Z,15.30
2023-03-29T15:56:01.975Z,14.68
2023-03-29T15:58:33.503Z,19.00
2023-03-29T16:01:11.975Z,16.07
2023-03-29T16:03:39.984Z,14.10
2023-03-29T16:06:09.935Z,23.20
2023-03-29T16:08:36.758Z,14.88
2023-03-29T16:11:05.032Z,14.68
2023-03-29T16:13:31.705Z,13.30
2023-03-29T16:15:58.564Z,18.77
2023-03-29T16:18:25.300Z,18.75
2023-03-29T16:20:51.994Z,20.00
2023-03-29T16:23:18.637Z,17.52
2023-03-29T16:25:45.276Z,12.60
2023-03-29T16:28:12.238Z,15.38
2023-03-29T16:30:39.097Z,14.95
2023-03-29T16:33:08.814Z,17.23
2023-03-29T16:35:40.074Z,13.65
2023-03-29T16:38:08.569Z,16.40
2023-03-29T16:40:35.994Z,18.27
2023-03-29T16:43:02.785Z,15.75
2023-03-29T16:45:29.655Z,24.30
2023-03-29T16:47:56.950Z,43.00
2023-03-29T16:50:23.805Z,33.10
2023-03-29T16:52:52.533Z,21.80
2023-03-29T16:55:19.594Z,22.30
2023-03-29T16:57:47.511Z,22.35
2023-03-29T17:00:16.930Z,16.52
2023-03-29T17:02:44.374Z,14.82
2023-03-29T17:05:12.384Z,18.83
2023-03-29T17:07:39.486Z,16.67
2023-03-29T17:10:10.617Z,17.25
2023-03-29T17:12:37.364Z,24.57
2023-03-29T17:15:05.963Z,20.95
2023-03-29T17:17:32.680Z,18.83
2023-03-29T17:19:59.672Z,19.65
2023-03-29T17:22:26.608Z,21.55
2023-03-29T17:24:53.295Z,20.58
2023-03-29T17:27:20.911Z,14.85
2023-03-29T17:29:47.752Z,14.82
2023-03-29T17:32:14.432Z,15.82
2023-03-29T17:34:41.574Z,14.80
2023-03-29T17:37:09.499Z,15.00
2023-03-29T17:39:37.540Z,21.60
2023-03-29T17:42:05.556Z,17.65
2023-03-29T17:44:33.211Z,19.42
2023-03-29T17:47:00.989Z,17.33
2023-03-29T17:49:27.841Z,19.88
2023-03-29T17:51:54.642Z,22.33
2023-03-29T17:54:21.485Z,21.85
2023-03-29T17:56:48.782Z,17.50
2023-03-29T17:59:15.835Z,23.67
2023-03-29T18:01:42.831Z,17.63
2023-03-29T18:04:09.765Z,17.15
2023-03-29T18:06:36.430Z,20.08
2023-03-29T18:09:04.297Z,23.67
2023-03-29T18:11:31.498Z,21.23
2023-03-29T18:14:00.307Z,21.48
2023-03-29T18:16:27.071Z,19.92
2023-03-29T18:18:54.588Z,18.35
2023-03-29T18:21:21.890Z,15.55
2023-03-29T18:23:49.868Z,17.08
2023-03-29T18:26:17.487Z,21.60
2023-03-29T18:28:48.234Z,17.73
2023-03-29T18:31:15.963Z,19.52
2023-03-29T18:33:43.159Z,16.42
2023-03-29T18:36:13.001Z,16.15
2023-03-29T18:38:43.286Z,18.83
2023-03-29T18:41:12.338Z,17.42
2023-03-29T18:43:40.853Z,16.48
2023-03-29T18:46:08.340Z,16.15
2023-03-29T18:48:41.753Z,20.45
2023-03-29T18:51:10.477Z,15.35
2023-03-29T18:53:38.728Z,19.30
2023-03-29T18:56:06.558Z,20.67
2023-03-29T18:58:33.715Z,35.08
2023-03-29T19:01:05.396Z,14.73
2023-03-29T19:03:34.318Z,21.85
2023-03-29T19:06:02.250Z,22.40
2023-03-29T19:08:29.116Z,19.92
2023-03-29T19:11:04.600Z,27.98
2023-03-29T19:13:31.818Z,20.45
2023-03-29T19:15:58.570Z,18.02
2023-03-29T19:18:25.897Z,21.75
2023-03-29T19:20:54.122Z,21.95
2023-03-29T19:23:22.386Z,22.98
2023-03-29T19:25:55.818Z,23.67
2023-03-29T19:28:23.153Z,19.98
2023-03-29T19:30:50.348Z,31.52
2023-03-29T19:33:17.262Z,25.02
2023-03-29T19:35:44.116Z,21.08
2023-03-29T19:38:11.066Z,24.08
2023-03-29T19:40:37.805Z,24.85
2023-03-29T19:43:04.935Z,22.48
2023-03-29T19:45:31.620Z,27.27
2023-03-29T19:48:02.538Z,23.52
2023-03-29T19:50:31.874Z,22.38
2023-03-29T19:52:58.551Z,30.90
2023-03-29T19:55:25.918Z,22.10
2023-03-29T19:57:52.612Z,24.35
2023-03-29T20:00:24.241Z,21.80
2023-03-29T20:02:52.430Z,25.60
2023-03-29T20:05:20.232Z,23.13
2023-03-29T20:07:46.921Z,20.30
2023-03-29T20:10:14.169Z,23.88
2023-03-29T20:12:40.974Z,19.55
2023-03-29T20:15:08.120Z,19.65
2023-03-29T20:17:35.554Z,21.77
2023-03-29T20:20:08.147Z,20.77
2023-03-29T20:22:34.791Z,30.40
2023-03-29T20:25:01.755Z,21.30
2023-03-29T20:27:29.342Z,24.48
2023-03-29T20:29:56.033Z,20.77
2023-03-29T20:32:23.058Z,18.75
2023-03-29T20:34:49.813Z,23.80
2023-03-29T20:37:16.502Z,22.42
2023-03-29T20:39:43.190Z,23.08
2023-03-29T20:42:09.840Z,22.88
2023-03-29T20:44:36.650Z,21.23
2023-03-29T20:47:04.812Z,22.95
2023-03-29T20:49:37.122Z,20.60
2023-03-29T20:52:15.344Z,20.42
2023-03-29T20:54:43.753Z,17.15
2023-03-29T20:57:14.108Z,16.88
2023-03-29T20:59:41.586Z,20.13
2023-03-29T21:02:10.532Z,21.95
2023-03-29T21:04:37.205Z,19.58
2023-03-29T21:07:06.284Z,19.98
2023-03-29T21:09:35.370Z,19.98
2023-03-29T21:12:03.405Z,20.67
2023-03-29T21:14:30.370Z,22.95
2023-03-29T21:16:57.728Z,18.85
2023-03-29T21:19:24.459Z,21.30
2023-03-29T21:21:52.144Z,16.27
2023-03-29T21:24:19.326Z,17.25
2023-03-29T21:26:46.444Z,20.88
2023-03-29T21:29:13.731Z,17.60
2023-03-29T21:31:40.775Z,16.65
2023-03-29T21:34:07.484Z,16.73
2023-03-29T21:36:34.118Z,21.95
2023-03-29T21:39:00.831Z,19.52
2023-03-29T21:41:27.842Z,18.42
2023-03-29T21:43:54.470Z,19.33
2023-03-29T21:46:21.341Z,17.20
2023-03-29T21:48:48.117Z,17.45
2023-03-29T21:51:14.864Z,14.95
2023-03-29T21:53:41.515Z,19.63
2023-03-29T21:56:08.672Z,18.55
2023-03-29T21:58:35.553Z,16.92
2023-03-29T22:01:03.680Z,21.25
2023-03-29T22:03:31.319Z,15.63
2023-03-29T22:06:00.522Z,18.38
2023-03-29T22:08:27.274Z,16.08
2023-03-29T22:10:56.556Z,15.00
2023-03-29T22:13:28.541Z,16.45
2023-03-29T22:18:27.717Z,18.20
2023-03-29T22:20:54.519Z,16.60
2023-03-29T22:23:21.318Z,12.07
2023-03-29T22:25:48.100Z,12.98
2023-03-29T22:28:14.729Z,13.18
2023-03-29T22:30:41.406Z,13.85
2023-03-29T22:33:08.159Z,13.35
2023-03-29T22:35:35.946Z,12.18
2023-03-29T22:38:02.628Z,14.65
2023-03-29T22:40:33.022Z,11.05
2023-03-29T22:43:00.107Z,15.85
2023-03-29T22:45:26.821Z,15.23
2023-03-29T22:47:53.449Z,16.33
2023-03-29T22:50:20.116Z,14.05
2023-03-29T22:52:46.808Z,11.55
2023-03-29T22:55:13.613Z,12.57
2023-03-29T22:57:40.710Z,13.52
2023-03-29T23:00:08.941Z,12.02
2023-03-29T23:02:36.674Z,18.35
2023-03-29T23:05:03.539Z,10.30
2023-03-29T23:07:30.240Z,14.05
2023-03-29T23:09:56.899Z,12.73
2023-03-29T23:12:24.153Z,12.55
2023-03-29T23:14:53.081Z,9.68
2023-03-29T23:17:20.459Z,8.13
2023-03-29T23:19:47.857Z,11.57
2023-03-29T23:22:14.627Z,7.80
2023-03-29T23:24:43.466Z,6.95
2023-03-29T23:27:10.158Z,7.88
2023-03-29T23:29:37.781Z,8.23
2023-03-29T23:32:04.615Z,9.85
2023-03-29T23:34:31.446Z,8.38
2023-03-29T23:36:58.106Z,8.23
2023-03-29T23:39:25.162Z,7.88
2023-03-29T23:41:51.781Z,9.95
2023-03-29T23:44:18.393Z,8.48
2023-03-29T23:46:45.155Z,6.70
2023-03-29T23:49:11.963Z,8.82
2023-03-29T23:51:38.985Z,10.88
2023-03-29T23:54:05.650Z,8.38
2023-03-29T23:56:32.507Z,9.05
2023-03-29T23:58:59.233Z,8.98
